Weather History for KTQH - February, 2012

Change the Weather History Date:

Friday, February 3, 2012

  Actual Average (KFYV) Record (KFYV)
Temperature  
Mean Temperature 55 °F 37 °F  
Max Temperature 59 °F 48 °F 75 °F (1962)
Min Temperature 51 °F 26 °F -6 °F (1985)
Degree Days  
Heating Degree Days 10 28  
Month to date heating degree days 84  
Since 1 July heating degree days 2678  
Growing Degree Days 5 (Base 50)    
Moisture  
Dew Point 48 °F    
Average Humidity 83    
Maximum Humidity 100    
Minimum Humidity 58    
Precipitation  
Precipitation 0.84 in 0.08 in 1.05 in (2012)
Month to date precipitation 0.26  
Year to date precipitation 3.10  
Sea Level Pressure  
Sea Level Pressure 29.99 in    
Wind  
Wind Speed 13 mph (SE)    
Max Wind Speed 20 mph    
Max Gust Speed 26 mph    
Visibility 9 miles    
Events      
T = Trace of Precipitation, MM = Missing Value Source: NWS Daily Summary

Daily Weather History Graph

Daily Weather History Graph

Search for Another Location

Airport or City:

Trip Planner

Search our weather history database for the weather conditions in past years. The results will help you decide how hot, cold, wet, or windy it might be!

Date:

Astronomy

Feb. 03, 2012 Rise Set
Actual Time 7:19 AM CST 5:48 PM CST
Civil Twilight 6:52 AM CST 6:15 PM CST
Nautical Twilight 6:21 AM CST 6:46 PM CST
Astronomical Twilight 5:51 AM CST 7:16 PM CST
Moon 1:55 PM CST (2/3) 3:51 AM CST (2/3)
Length of Visible Light 11h 23m
Length of Day
10h 29m
Waxing Gibbous, 82% of the Moon is Illuminated
Feb 3
Waxing Gibbous
Feb 7
Full
Feb 14
Last Quarter
Feb 21
New
Feb 29
First Quarter

Hourly Weather History & Observations

Time (CST) Temp. Dew Point Humidity Pressure Visibility Wind Dir Wind Speed Gust Speed Precip Events Conditions
12:15 AM 53.6 °F 39.2 °F 58% 30.09 in 10.0 mi ESE 10.4 mph 18.4 mph N/A   Clear
12:35 AM 51.8 °F 39.2 °F 62% 30.08 in 10.0 mi ESE 13.8 mph 20.7 mph N/A   Clear
12:55 AM 53.6 °F 41.0 °F 62% 30.07 in 10.0 mi SE 16.1 mph 20.7 mph N/A   Mostly Cloudy
1:15 AM 53.6 °F 41.0 °F 62% 30.06 in 10.0 mi ESE 11.5 mph 21.9 mph N/A   Overcast
1:35 AM 53.6 °F 41.0 °F 62% 30.06 in 10.0 mi SE 10.4 mph 19.6 mph N/A   Overcast
1:55 AM 53.6 °F 41.0 °F 62% 30.06 in 10.0 mi SE 11.5 mph 18.4 mph N/A   Overcast
2:15 AM 55.4 °F 41.0 °F 58% 30.05 in 10.0 mi SE 17.3 mph 24.2 mph N/A   Overcast
2:35 AM 55.4 °F 41.0 °F 58% 30.06 in 10.0 mi SE 15.0 mph 24.2 mph N/A   Overcast
2:55 AM 53.6 °F 41.0 °F 62% 30.06 in 10.0 mi SE 16.1 mph 23.0 mph N/A   Mostly Cloudy
3:15 AM 53.6 °F 41.0 °F 62% 30.06 in 10.0 mi SE 11.5 mph 19.6 mph N/A   Overcast
3:35 AM 55.4 °F 41.0 °F 58% 30.06 in 10.0 mi SE 12.7 mph 20.7 mph N/A   Overcast
3:55 AM 55.4 °F 42.8 °F 63% 30.05 in 10.0 mi SE 16.1 mph 24.2 mph N/A   Overcast
4:15 AM 55.4 °F 42.8 °F 63% 30.04 in 10.0 mi SE 16.1 mph 25.3 mph N/A   Overcast
4:35 AM 53.6 °F 42.8 °F 67% 30.03 in 10.0 mi SE 18.4 mph 25.3 mph N/A   Overcast
4:55 AM 53.6 °F 44.6 °F 72% 30.04 in 10.0 mi SE 18.4 mph 23.0 mph N/A   Overcast
5:15 AM 53.6 °F 44.6 °F 72% 30.04 in 10.0 mi SE 13.8 mph 23.0 mph N/A   Overcast
5:35 AM 53.6 °F 44.6 °F 72% 30.03 in 10.0 mi SE 17.3 mph 23.0 mph N/A   Overcast
6:35 AM 53.6 °F 46.4 °F 77% 30.04 in 10.0 mi SE 13.8 mph - N/A   Overcast
6:55 AM 53.6 °F 46.4 °F 77% 30.04 in 10.0 mi SE 15.0 mph - N/A   Overcast
7:15 AM 53.6 °F 46.4 °F 77% 30.04 in 10.0 mi SE 13.8 mph 20.7 mph N/A   Overcast
7:55 AM 51.8 °F 46.4 °F 82% 30.03 in 10.0 mi SE 16.1 mph 24.2 mph N/A   Overcast
8:15 AM 51.8 °F 48.2 °F 88% 30.03 in 10.0 mi ESE 12.7 mph 18.4 mph N/A   Overcast
8:35 AM 51.8 °F 48.2 °F 88% 30.04 in 10.0 mi SE 8.1 mph - N/A   Overcast
8:55 AM 51.8 °F 48.2 °F 88% 30.04 in 10.0 mi SE 15.0 mph 24.2 mph N/A   Overcast
9:15 AM 51.8 °F 48.2 °F 88% 30.04 in 10.0 mi SE 17.3 mph 24.2 mph N/A   Overcast
9:35 AM 53.6 °F 50.0 °F 88% 30.04 in 10.0 mi SE 11.5 mph 21.9 mph N/A   Overcast
9:55 AM 53.6 °F 50.0 °F 88% 30.05 in 10.0 mi SE 12.7 mph - N/A   Overcast
10:15 AM 53.6 °F 50.0 °F 88% 30.04 in 10.0 mi SE 12.7 mph 18.4 mph N/A   Overcast
10:55 AM 53.6 °F 50.0 °F 88% 30.04 in 10.0 mi SE 16.1 mph 20.7 mph N/A   Overcast
11:15 AM 55.4 °F 50.0 °F 82% 30.03 in 10.0 mi SE 18.4 mph 26.5 mph N/A   Overcast
11:35 AM 55.4 °F 51.8 °F 88% 30.01 in 10.0 mi SE 19.6 mph 24.2 mph N/A   Overcast
11:55 AM 59.0 °F 51.8 °F 77% 30.00 in 10.0 mi SE 12.7 mph 23.0 mph N/A   Overcast
12:15 PM 57.2 °F 51.8 °F 82% 29.99 in 10.0 mi SSE 11.5 mph 20.7 mph N/A   Overcast
12:35 PM 57.2 °F 51.8 °F 82% 29.99 in 10.0 mi SE 13.8 mph 20.7 mph N/A   Overcast
12:55 PM 57.2 °F 51.8 °F 82% 29.96 in 10.0 mi SE 17.3 mph 24.2 mph N/A   Overcast
1:15 PM 59.0 °F 51.8 °F 77% 29.94 in 10.0 mi SE 12.7 mph 19.6 mph N/A   Overcast
1:35 PM 57.2 °F 51.8 °F 82% 29.94 in 10.0 mi SE 10.4 mph 21.9 mph N/A   Overcast
1:55 PM 55.4 °F 51.8 °F 88% 29.94 in 10.0 mi SE 10.4 mph - N/A   Overcast
2:15 PM 55.4 °F 51.8 °F 88% 29.94 in 10.0 mi SE 12.7 mph 16.1 mph N/A   Overcast
2:35 PM 53.6 °F 51.8 °F 94% 29.94 in 10.0 mi SE 11.5 mph 17.3 mph N/A   Overcast
2:55 PM 53.6 °F 51.8 °F 94% 29.94 in 2.0 mi SE 3.5 mph - 0.11 in   Overcast
3:15 PM 53.6 °F 51.8 °F 94% 29.90 in 10.0 mi ESE 11.5 mph 16.1 mph N/A   Overcast
3:35 PM 53.6 °F 53.6 °F 100% 29.91 in 10.0 mi SE 10.4 mph - N/A   Overcast
3:55 PM 53.6 °F 53.6 °F 100% 29.90 in 10.0 mi ESE 8.1 mph - N/A   Overcast
4:15 PM 53.6 °F 53.6 °F 100% 29.91 in 10.0 mi SE 6.9 mph - N/A   Mostly Cloudy
4:35 PM 55.4 °F 55.4 °F 100% 29.91 in 10.0 mi SSE 6.9 mph - N/A   Mostly Cloudy
4:55 PM 55.4 °F 55.4 °F 100% 29.90 in 10.0 mi SE 12.7 mph 17.3 mph N/A   Overcast
5:15 PM 53.6 °F 53.6 °F 100% 29.90 in 10.0 mi SE 11.5 mph - 0.01 in   Overcast
5:35 PM 53.6 °F 53.6 °F 100% 29.90 in 7.0 mi SE 15.0 mph 24.2 mph 0.01 in   Overcast
5:55 PM 51.8 °F 51.8 °F 100% 29.90 in 5.0 mi SE 15.0 mph 21.9 mph 0.04 in   Overcast
6:15 PM 51.8 °F 51.8 °F 100% 29.91 in 10.0 mi SE 8.1 mph - 0.02 in   Overcast
6:35 PM 51.8 °F 51.8 °F 100% 29.92 in 10.0 mi SE 3.5 mph - 0.02 in   Overcast
6:55 PM 51.8 °F 51.8 °F 100% 29.98 in 2.0 mi WNW 10.4 mph 20.7 mph 0.10 in   Overcast
7:15 PM 51.8 °F 51.8 °F 100% 29.94 in 3.0 mi Calm Calm - 0.06 in   Overcast
7:35 PM 51.8 °F 51.8 °F 100% 29.94 in 1.2 mi ESE 3.5 mph - 0.19 in   Overcast
7:55 PM 53.6 °F 53.6 °F 100% 29.91 in 1.0 mi ESE 12.7 mph 16.1 mph 0.40 in   Overcast
8:15 PM 53.6 °F 53.6 °F 100% 29.91 in 10.0 mi SSE 3.5 mph - 0.16 in   Scattered Clouds
8:35 PM 53.6 °F 53.6 °F 100% 29.92 in 5.0 mi South 6.9 mph - 0.19 in   Mostly Cloudy
8:55 PM 53.6 °F 53.6 °F 100% 29.90 in 10.0 mi SE 8.1 mph - 0.19 in   Mostly Cloudy
9:15 PM 53.6 °F 53.6 °F 100% 29.91 in 10.0 mi SSE 3.5 mph - N/A   Mostly Cloudy
9:35 PM 53.6 °F 53.6 °F 100% 29.92 in 10.0 mi SSE 5.8 mph - 0.01 in   Mostly Cloudy
9:55 PM 53.6 °F 53.6 °F 100% 29.92 in 10.0 mi SSE 4.6 mph - 0.01 in   Mostly Cloudy
10:15 PM 53.6 °F 53.6 °F 100% 29.94 in 10.0 mi SSE 3.5 mph - N/A   Mostly Cloudy
10:35 PM 53.6 °F 53.6 °F 100% 29.94 in 10.0 mi SSE 4.6 mph - N/A   Mostly Cloudy
10:55 PM 51.8 °F 51.8 °F 100% 29.94 in 10.0 mi Calm Calm - N/A   Scattered Clouds
11:15 PM 51.8 °F 51.8 °F 100% 29.94 in 10.0 mi Calm Calm - N/A   Clear
11:35 PM 51.8 °F 51.8 °F 100% 29.95 in 10.0 mi Calm Calm - N/A   Mostly Cloudy
11:55 PM 51.8 °F 51.8 °F 100% 29.96 in 10.0 mi SW 4.6 mph - N/A   Overcast